Observation data for Morton on 06/26/2019      Previous  Date  Next       Current Mesonet Observations  Soil Data  Daily Summary Page  Observations in Plain Language
KMNS 260500Z 10022G30KT 23/14 A301 RMK A01 T02260138  RH  060%=      5-min Rain = 0
KMNS 260505Z 11022G27KT 23/14 A301 RMK A01 T02260143  RH  062%=      5-min Rain = 0
KMNS 260510Z 11021G28KT 23/15 A301 RMK A01 T02270145  RH  063%=      5-min Rain = 0
KMNS 260515Z 11023G29KT 23/15 A301 RMK A01 T02300147  RH  062%=      5-min Rain = 0
KMNS 260520Z 11022G27KT 23/15 A301 RMK A01 T02310148  RH  062%=      5-min Rain = 0
KMNS 260525Z 11022G28KT 23/15 A3011 RMK A01 T02310149  RH  063%=      5-min Rain = 0
KMNS 260530Z 11020G26KT 23/15 A3012 RMK A01 T02300149  RH  063%=      5-min Rain = 0
KMNS 260535Z 11021G27KT 23/15 A3012 RMK A01 T02300150  RH  063%=      5-min Rain = 0
KMNS 260540Z 11021G27KT 23/15 A3011 RMK A01 T02300150  RH  063%=      5-min Rain = 0
KMNS 260545Z 11021G27KT 23/15 A3011 RMK A01 T02300150  RH  063%=      5-min Rain = 0
KMNS 260550Z 12020G26KT 23/15 A301 RMK A01 T02290149  RH  063%=      5-min Rain = 0
KMNS 260555Z 13022G27KT 23/15 A3009 RMK A01 T02300149  RH  063%=      5-min Rain = 0
KMNS 260600Z 13021G28KT 23/15 A3008 RMK A01 T02320150  RH  063%=      5-min Rain = 0
KMNS 260605Z 14023G31KT 24/15 A3008 RMK A01 T02350151  RH  062%=      5-min Rain = 0
KMNS 260610Z 14023G29KT 24/15 A3008 RMK A01 T02360151  RH  062%=      5-min Rain = 0
KMNS 260615Z 14022G31KT 24/15 A3008 RMK A01 T02370151  RH  061%=      5-min Rain = 0
KMNS 260620Z 14022G32KT 24/15 A3008 RMK A01 T02400151  RH  060%=      5-min Rain = 0
KMNS 260625Z 14023G29KT 24/15 A3007 RMK A01 T02400150  RH  060%=      5-min Rain = 0
KMNS 260630Z 15023G30KT 24/15 A3007 RMK A01 T02400149  RH  059%=      5-min Rain = 0
KMNS 260635Z 15022G32KT 24/15 A3007 RMK A01 T02400149  RH  059%=      5-min Rain = 0
KMNS 260640Z 15022G31KT 24/15 A3007 RMK A01 T02410148  RH  059%=      5-min Rain = 0
KMNS 260645Z 15022G27KT 24/15 A3008 RMK A01 T02400148  RH  059%=      5-min Rain = 0
KMNS 260650Z 15021G29KT 24/15 A3008 RMK A01 T02390148  RH  059%=      5-min Rain = 0
KMNS 260655Z 15020G26KT 24/15 A3008 RMK A01 T02390147  RH  059%=      5-min Rain = 0
KMNS 260700Z 15018KT 24/15 A3009 RMK A01 T02370147  RH  060%=      5-min Rain = 0
KMNS 260705Z 15018G25KT 24/15 A301 RMK A01 T02360147  RH  060%=      5-min Rain = 0
KMNS 260710Z 15020G25KT 24/15 A301 RMK A01 T02350148  RH  061%=      5-min Rain = 0
KMNS 260715Z 15017G24KT 23/15 A301 RMK A01 T02340148  RH  061%=      5-min Rain = 0
KMNS 260720Z 16015G20KT 23/15 A301 RMK A01 T02330148  RH  061%=      5-min Rain = 0
KMNS 260725Z 16016KT 23/15 A3009 RMK A01 T02330147  RH  061%=      5-min Rain = 0
KMNS 260730Z 16016G22KT 23/15 A3009 RMK A01 T02330147  RH  061%=      5-min Rain = 0
KMNS 260735Z 16016G22KT 23/15 A3009 RMK A01 T02320147  RH  061%=      5-min Rain = 0
KMNS 260740Z 16015G20KT 23/15 A3009 RMK A01 T02300147  RH  062%=      5-min Rain = 0
KMNS 260745Z 17015G20KT 23/15 A3009 RMK A01 T02290147  RH  063%=      5-min Rain = 0
KMNS 260750Z 16014G20KT 23/15 A3009 RMK A01 T02290148  RH  063%=      5-min Rain = 0
KMNS 260755Z 16013G20KT 23/15 A3009 RMK A01 T02270148  RH  063%=      5-min Rain = 0
KMNS 260800Z 17014G19KT 23/15 A3009 RMK A01 T02280148  RH  063%=      5-min Rain = 0
KMNS 260805Z 17014KT 23/15 A3009 RMK A01 T02270148  RH  064%=      5-min Rain = 0
KMNS 260810Z 18015G20KT 23/15 A3009 RMK A01 T02260148  RH  064%=      5-min Rain = 0
KMNS 260815Z 18014G19KT 23/15 A3009 RMK A01 T02260148  RH  064%=      5-min Rain = 0
KMNS 260820Z 17014G19KT 22/15 A3009 RMK A01 T02240148  RH  065%=      5-min Rain = 0
KMNS 260825Z 18015G21KT 22/15 A3009 RMK A01 T02240148  RH  065%=      5-min Rain = 0
KMNS 260830Z 17014KT 22/15 A3009 RMK A01 T02230148  RH  065%=      5-min Rain = 0
KMNS 260835Z 17014KT 22/15 A3009 RMK A01 T02220148  RH  066%=      5-min Rain = 0
KMNS 260840Z 17013KT 22/15 A3009 RMK A01 T02210148  RH  066%=      5-min Rain = 0
KMNS 260845Z 17013KT 22/15 A3009 RMK A01 T02200148  RH  067%=      5-min Rain = 0
KMNS 260850Z 17013KT 22/15 A3009 RMK A01 T02180148  RH  067%=      5-min Rain = 0
KMNS 260855Z 18013KT 22/15 A3009 RMK A01 T02180149  RH  068%=      5-min Rain = 0
KMNS 260900Z 18012KT 22/15 A3009 RMK A01 T02170148  RH  068%=      5-min Rain = 0
KMNS 260905Z 17013KT 22/15 A3009 RMK A01 T02160149  RH  068%=      5-min Rain = 0
KMNS 260910Z 17013KT 22/15 A3009 RMK A01 T02160148  RH  069%=      5-min Rain = 0
KMNS 260915Z 18012KT 22/15 A3009 RMK A01 T02150148  RH  069%=      5-min Rain = 0
KMNS 260920Z 17013KT 21/15 A3009 RMK A01 T02140148  RH  069%=      5-min Rain = 0
KMNS 260925Z 18012G17KT 21/15 A3009 RMK A01 T02140148  RH  069%=      5-min Rain = 0
KMNS 260930Z 18013KT 21/15 A3009 RMK A01 T02120148  RH  070%=      5-min Rain = 0
KMNS 260935Z 18012KT 21/15 A3008 RMK A01 T02120148  RH  070%=      5-min Rain = 0
KMNS 260940Z 18012KT 21/15 A3008 RMK A01 T02110148  RH  070%=      5-min Rain = 0
KMNS 260945Z 18013KT 21/15 A3008 RMK A01 T02100148  RH  071%=      5-min Rain = 0
KMNS 260950Z 19013KT 21/15 A3008 RMK A01 T02090148  RH  071%=      5-min Rain = 0
KMNS 260955Z 19013KT 21/15 A3008 RMK A01 T02070148  RH  072%=      5-min Rain = 0
KMNS 261000Z 19013KT 21/15 A3008 RMK A01 T02060148  RH  072%=      5-min Rain = 0
KMNS 261005Z 19013KT 21/15 A3008 RMK A01 T02060148  RH  072%=      5-min Rain = 0
KMNS 261010Z 19013KT 20/15 A3008 RMK A01 T02040148  RH  073%=      5-min Rain = 0
KMNS 261015Z 19012KT 20/15 A3008 RMK A01 T02030147  RH  073%=      5-min Rain = 0
KMNS 261020Z 19013KT 20/15 A3008 RMK A01 T02030148  RH  074%=      5-min Rain = 0
KMNS 261025Z 19012KT 20/15 A3008 RMK A01 T02020148  RH  074%=      5-min Rain = 0
KMNS 261030Z 19012KT 20/15 A3008 RMK A01 T02010147  RH  075%=      5-min Rain = 0
KMNS 261035Z 19011KT 20/15 A3008 RMK A01 T02000148  RH  075%=      5-min Rain = 0
KMNS 261040Z 19011KT 20/15 A3008 RMK A01 T02000148  RH  075%=      5-min Rain = 0
KMNS 261045Z 18011KT 20/15 A3009 RMK A01 T01990148  RH  076%=      5-min Rain = 0
KMNS 261050Z 18010KT 20/15 A3009 RMK A01 T01980148  RH  076%=      5-min Rain = 0
KMNS 261055Z 19011G16KT 20/15 A3009 RMK A01 T01970148  RH  077%=      5-min Rain = 0
KMNS 261100Z 19011KT 20/15 A3009 RMK A01 T01950148  RH  077%=      5-min Rain = 0
KMNS 261105Z 19011KT 19/15 A3009 RMK A01 T01940148  RH  078%=      5-min Rain = 0
KMNS 261110Z 19011KT 19/15 A3009 RMK A01 T01930148  RH  078%=      5-min Rain = 0
KMNS 261115Z 20011KT 19/15 A3009 RMK A01 T01920148  RH  079%=      5-min Rain = 0
KMNS 261120Z 20011KT 19/15 A3009 RMK A01 T01920148  RH  079%=      5-min Rain = 0
KMNS 261125Z 20012KT 19/15 A3009 RMK A01 T01930149  RH  079%=      5-min Rain = 0
KMNS 261130Z 21012KT 19/15 A3008 RMK A01 T01930149  RH  079%=      5-min Rain = 0
KMNS 261135Z 21012KT 19/15 A3009 RMK A01 T01920149  RH  079%=      5-min Rain = 0
KMNS 261140Z 21012KT 19/15 A3009 RMK A01 T01930149  RH  079%=      5-min Rain = 0
KMNS 261145Z 19010KT 19/15 A3009 RMK A01 T01920149  RH  080%=      5-min Rain = 0
KMNS 261150Z 16008KT 19/15 A301 RMK A01 T01900148  RH  080%=      5-min Rain = 0
KMNS 261155Z 18009KT 19/15 A301 RMK A01 T01890148  RH  081%=      5-min Rain = 0
KMNS 261200Z 18009KT 19/15 A301 RMK A01 T01870148  RH  081%=      5-min Rain = 0
KMNS 261205Z 16007KT 19/15 A301 RMK A01 T01870148  RH  082%=      5-min Rain = 0
KMNS 261210Z 18008KT 19/15 A301 RMK A01 T01870148  RH  082%=      5-min Rain = 0
KMNS 261215Z 19008KT 19/15 A301 RMK A01 T01860149  RH  082%=      5-min Rain = 0
KMNS 261220Z 19007KT 19/15 A301 RMK A01 T01870149  RH  082%=      5-min Rain = 0
KMNS 261225Z 18007KT 19/15 A301 RMK A01 T01870150  RH  082%=      5-min Rain = 0
KMNS 261230Z 18007KT 19/15 A301 RMK A01 T01880150  RH  082%=      5-min Rain = 0
KMNS 261235Z 16007KT 19/15 A3011 RMK A01 T01900151  RH  081%=      5-min Rain = 0
KMNS 261240Z 15006KT 19/15 A3011 RMK A01 T01920151  RH  081%=      5-min Rain = 0
KMNS 261245Z 17007KT 19/15 A3011 RMK A01 T01920151  RH  080%=      5-min Rain = 0
KMNS 261250Z 18007KT 19/15 A3011 RMK A01 T01940151  RH  080%=      5-min Rain = 0
KMNS 261255Z 17008KT 20/15 A3012 RMK A01 T01960152  RH  079%=      5-min Rain = 0
KMNS 261300Z 17007KT 20/15 A3012 RMK A01 T01970152  RH  079%=      5-min Rain = 0
KMNS 261305Z 17008KT 20/15 A3012 RMK A01 T02000153  RH  078%=      5-min Rain = 0
KMNS 261310Z 18009KT 20/15 A3012 RMK A01 T02020153  RH  077%=      5-min Rain = 0
KMNS 261315Z 19009KT 20/15 A3012 RMK A01 T02040154  RH  076%=      5-min Rain = 0
KMNS 261320Z 19010KT 21/15 A3012 RMK A01 T02050154  RH  076%=      5-min Rain = 0
KMNS 261325Z 19011KT 21/16 A3013 RMK A01 T02080155  RH  075%=      5-min Rain = 0
KMNS 261330Z 19010KT 21/16 A3013 RMK A01 T02110156  RH  074%=      5-min Rain = 0
KMNS 261335Z 19011KT 21/16 A3014 RMK A01 T02140157  RH  073%=      5-min Rain = 0
KMNS 261340Z 19010KT 22/16 A3014 RMK A01 T02180158  RH  072%=      5-min Rain = 0
KMNS 261345Z 19012KT 22/16 A3014 RMK A01 T02180157  RH  071%=      5-min Rain = 0
KMNS 261350Z 19011KT 22/16 A3014 RMK A01 T02200157  RH  071%=      5-min Rain = 0
KMNS 261355Z 18011KT 22/16 A3014 RMK A01 T02240158  RH  069%=      5-min Rain = 0
KMNS 261400Z 18012KT 23/16 A3015 RMK A01 T02250158  RH  069%=      5-min Rain = 0
KMNS 261405Z 19011KT 23/16 A3015 RMK A01 T02280159  RH  068%=      5-min Rain = 0
KMNS 261410Z 20011KT 23/16 A3015 RMK A01 T02310158  RH  067%=      5-min Rain = 0
KMNS 261415Z 18011KT 23/16 A3015 RMK A01 T02340158  RH  065%=      5-min Rain = 0
KMNS 261420Z 19012KT 24/16 A3015 RMK A01 T02350156  RH  064%=      5-min Rain = 0
KMNS 261425Z 18009G14KT 24/16 A3016 RMK A01 T02370157  RH  064%=      5-min Rain = 0
KMNS 261430Z 19011KT 24/16 A3016 RMK A01 T02380155  RH  063%=      5-min Rain = 0
KMNS 261435Z 18011KT 24/15 A3016 RMK A01 T02410153  RH  060%=      5-min Rain = 0
KMNS 261440Z 19013KT 24/15 A3016 RMK A01 T02410151  RH  060%=      5-min Rain = 0
KMNS 261445Z 19010KT 25/16 A3016 RMK A01 T02450155  RH  060%=      5-min Rain = 0
KMNS 261450Z 19012KT 25/15 A3017 RMK A01 T02460151  RH  058%=      5-min Rain = 0
KMNS 261455Z 20011KT 25/15 A3017 RMK A01 T02490150  RH  057%=      5-min Rain = 0
KMNS 261500Z 21010KT 25/15 A3017 RMK A01 T02520151  RH  056%=      5-min Rain = 0
KMNS 261505Z 19009KT 25/15 A3017 RMK A01 T02510153  RH  057%=      5-min Rain = 0
KMNS 261510Z 21009KT 25/15 A3017 RMK A01 T02540153  RH  056%=      5-min Rain = 0
KMNS 261515Z 20008KT 26/15 A3017 RMK A01 T02600154  RH  054%=      5-min Rain = 0
KMNS 261520Z 20009KT 26/15 A3017 RMK A01 T02580151  RH  054%=      5-min Rain = 0
KMNS 261525Z 21010KT 26/15 A3017 RMK A01 T02610148  RH  052%=      5-min Rain = 0
KMNS 261530Z 20010KT 26/15 A3016 RMK A01 T02640147  RH  051%=      5-min Rain = 0
KMNS 261535Z 20011KT 27/15 A3016 RMK A01 T02680146  RH  049%=      5-min Rain = 0
KMNS 261540Z 20011KT 27/14 A3016 RMK A01 T02710144  RH  048%=      5-min Rain = 0
KMNS 261545Z 19010KT 27/15 A3015 RMK A01 T02740146  RH  048%=      5-min Rain = 0
KMNS 261550Z 19012KT 28/14 A3015 RMK A01 T02750140  RH  045%=      5-min Rain = 0
KMNS 261555Z 20011KT 28/14 A3015 RMK A01 T02760136  RH  044%=      5-min Rain = 0
KMNS 261600Z 20011KT 28/14 A3015 RMK A01 T02780135  RH  043%=      5-min Rain = 0
KMNS 261605Z 20011KT 28/13 A3015 RMK A01 T02810132  RH  041%=      5-min Rain = 0
KMNS 261610Z 20009KT 29/14 A3015 RMK A01 T02900136  RH  041%=      5-min Rain = 0
KMNS 261615Z 21012KT 29/13 A3015 RMK A01 T02870131  RH  040%=      5-min Rain = 0
KMNS 261620Z 21012KT 29/13 A3015 RMK A01 T02870129  RH  039%=      5-min Rain = 0
KMNS 261625Z 19011G16KT 29/12 A3015 RMK A01 T02940124  RH  037%=      5-min Rain = 0
KMNS 261630Z 19012G17KT 29/12 A3015 RMK A01 T02940120  RH  036%=      5-min Rain = 0
KMNS 261635Z 19013KT 30/11 A3015 RMK A01 T02960114  RH  034%=      5-min Rain = 0
KMNS 261640Z 19013G18KT 30/11 A3015 RMK A01 T02980110  RH  032%=      5-min Rain = 0
KMNS 261645Z 20014KT 30/10 A3015 RMK A01 T02980102  RH  031%=      5-min Rain = 0
KMNS 261650Z 21013KT 30/11 A3015 RMK A01 T03000108  RH  032%=      5-min Rain = 0
KMNS 261655Z 21012G17KT 30/11 A3014 RMK A01 T03010105  RH  031%=      5-min Rain = 0
KMNS 261700Z 19010G17KT 31/11 A3014 RMK A01 T03060110  RH  031%=      5-min Rain = 0
KMNS 261705Z 19011G17KT 31/11 A3014 RMK A01 T03050105  RH  030%=      5-min Rain = 0
KMNS 261710Z 19011KT 31/11 A3015 RMK A01 T03090105  RH  029%=      5-min Rain = 0
KMNS 261715Z 19011KT 31/10 A3015 RMK A01 T03120104  RH  029%=      5-min Rain = 0
KMNS 261720Z 19013KT 31/10 A3014 RMK A01 T03100102  RH  029%=      5-min Rain = 0
KMNS 261725Z 18012G17KT 31/10 A3014 RMK A01 T03120101  RH  028%=      5-min Rain = 0
KMNS 261730Z 17012KT 31/10 A3014 RMK A01 T03140100  RH  028%=      5-min Rain = 0
KMNS 261735Z 21012KT 32/10 A3014 RMK A01 T03160096  RH  027%=      5-min Rain = 0
KMNS 261740Z 17011G16KT 32/10 A3014 RMK A01 T03190098  RH  026%=      5-min Rain = 0
KMNS 261745Z 17013KT 32/09 A3013 RMK A01 T03170093  RH  026%=      5-min Rain = 0
KMNS 261750Z 17011G18KT 32/09 A3013 RMK A01 T03160094  RH  026%=      5-min Rain = 0
KMNS 261755Z 18012KT 32/09 A3013 RMK A01 T03220085  RH  024%=      5-min Rain = 0
KMNS 261800Z 19013KT 32/09 A3013 RMK A01 T03210088  RH  024%=      5-min Rain = 0
KMNS 261805Z 18012G17KT 32/08 A3013 RMK A01 T03220083  RH  023%=      5-min Rain = 0
KMNS 261810Z 17013G20KT 33/08 A3013 RMK A01 T03260083  RH  023%=      5-min Rain = 0
KMNS 261815Z 17013G19KT 32/07 A3013 RMK A01 T03240074  RH  022%=      5-min Rain = 0
KMNS 261820Z 16013G19KT 33/08 A3013 RMK A01 T03270080  RH  022%=      5-min Rain = 0
KMNS 261825Z 17014G22KT 33/07 A3013 RMK A01 T03270066  RH  020%=      5-min Rain = 0
KMNS 261830Z 18014G20KT 33/08 A3013 RMK A01 T03280075  RH  021%=      5-min Rain = 0
KMNS 261835Z 17012G17KT 33/07 A3013 RMK A01 T03270072  RH  021%=      5-min Rain = 0
KMNS 261840Z 17012G17KT 33/08 A3013 RMK A01 T03310077  RH  021%=      5-min Rain = 0
KMNS 261845Z 17013G20KT 33/06 A3013 RMK A01 T03330062  RH  019%=      5-min Rain = 0
KMNS 261850Z 16015G22KT 33/06 A3012 RMK A01 T03330060  RH  019%=      5-min Rain = 0
KMNS 261855Z 16015G20KT 33/07 A3012 RMK A01 T03340069  RH  020%=      5-min Rain = 0
KMNS 261900Z 15015G22KT 33/06 A3012 RMK A01 T03340063  RH  019%=      5-min Rain = 0
KMNS 261905Z 16013G18KT 34/07 A3012 RMK A01 T03350066  RH  019%=      5-min Rain = 0
KMNS 261910Z 17014G20KT 34/06 A3012 RMK A01 T03390062  RH  018%=      5-min Rain = 0
KMNS 261915Z 18014G19KT 34/05 A3012 RMK A01 T03390054  RH  017%=      5-min Rain = 0
KMNS 261920Z 17015G20KT 34/07 A3012 RMK A01 T03370068  RH  019%=      5-min Rain = 0
KMNS 261925Z 15015G23KT 34/06 A3011 RMK A01 T03410064  RH  018%=      5-min Rain = 0
KMNS 261930Z 15016G26KT 34/06 A3011 RMK A01 T03410056  RH  017%=      5-min Rain = 0
KMNS 261935Z 16014G19KT 34/06 A3011 RMK A01 T03390058  RH  018%=      5-min Rain = 0
KMNS 261940Z 15014G20KT 34/07 A3011 RMK A01 T03440066  RH  018%=      5-min Rain = 0
KMNS 261945Z 15014G23KT 34/07 A3011 RMK A01 T03410066  RH  019%=      5-min Rain = 0
KMNS 261950Z 15016G24KT 34/06 A3011 RMK A01 T03440056  RH  017%=      5-min Rain = 0
KMNS 261955Z 16014G26KT 34/07 A3011 RMK A01 T03440068  RH  019%=      5-min Rain = 0
KMNS 262000Z 16017G25KT 34/06 A301 RMK A01 T03430061  RH  018%=      5-min Rain = 0
KMNS 262005Z 16013KT 34/06 A301 RMK A01 T03420062  RH  018%=      5-min Rain = 0
KMNS 262010Z 15018G26KT 34/07 A301 RMK A01 T03430067  RH  019%=      5-min Rain = 0
KMNS 262015Z 15016G23KT 34/08 A301 RMK A01 T03420075  RH  020%=      5-min Rain = 0
KMNS 262020Z 16017G22KT 34/08 A301 RMK A01 T03420075  RH  020%=      5-min Rain = 0
KMNS 262025Z 16015G23KT 35/08 A301 RMK A01 T03450082  RH  020%=      5-min Rain = 0
KMNS 262030Z 16017G25KT 34/08 A301 RMK A01 T03420076  RH  020%=      5-min Rain = 0
KMNS 262035Z 16017G25KT 34/08 A301 RMK A01 T03420075  RH  020%=      5-min Rain = 0
KMNS 262040Z 15016G22KT 35/07 A301 RMK A01 T03490074  RH  019%=      5-min Rain = 0
KMNS 262045Z 15017G23KT 34/08 A301 RMK A01 T03410075  RH  020%=      5-min Rain = 0
KMNS 262050Z 16015G20KT 34/07 A301 RMK A01 T03430072  RH  019%=      5-min Rain = 0
KMNS 262055Z 15015G21KT 34/07 A301 RMK A01 T03430074  RH  019%=      5-min Rain = 0
KMNS 262100Z 15016G22KT 34/07 A301 RMK A01 T03430074  RH  020%=      5-min Rain = 0
KMNS 262105Z 15017G24KT 35/07 A3009 RMK A01 T03450069  RH  019%=      5-min Rain = 0
KMNS 262110Z 15015G21KT 35/07 A3009 RMK A01 T03480071  RH  019%=      5-min Rain = 0
KMNS 262115Z 16017G23KT 34/06 A3009 RMK A01 T03410064  RH  018%=      5-min Rain = 0
KMNS 262120Z 17014G22KT 34/07 A3009 RMK A01 T03400073  RH  020%=      5-min Rain = 0
KMNS 262125Z 17014G21KT 34/07 A3009 RMK A01 T03440073  RH  019%=      5-min Rain = 0
KMNS 262130Z 17016G21KT 34/07 A3009 RMK A01 T03430071  RH  019%=      5-min Rain = 0
KMNS 262135Z 16014G19KT 34/08 A3009 RMK A01 T03440084  RH  021%=      5-min Rain = 0
KMNS 262140Z 16015G22KT 35/09 A3008 RMK A01 T03450086  RH  021%=      5-min Rain = 0
KMNS 262145Z 15016G22KT 34/09 A3008 RMK A01 T03430088  RH  022%=      5-min Rain = 0
KMNS 262150Z 17016G23KT 34/09 A3009 RMK A01 T03440089  RH  022%=      5-min Rain = 0
KMNS 262155Z 17014G25KT 35/09 A3009 RMK A01 T03450087  RH  021%=      5-min Rain = 0
KMNS 262200Z 15016G21KT 34/08 A3009 RMK A01 T03410084  RH  021%=      5-min Rain = 0
KMNS 262205Z 16016G23KT 34/09 A3009 RMK A01 T03350085  RH  022%=      5-min Rain = 0
KMNS 262210Z 16014KT 33/09 A3009 RMK A01 T03320085  RH  022%=      5-min Rain = 0
KMNS 262215Z 15014G19KT 33/09 A3009 RMK A01 T03310086  RH  023%=      5-min Rain = 0
KMNS 262220Z 17015G21KT 33/09 A3009 RMK A01 T03300086  RH  023%=      5-min Rain = 0
KMNS 262225Z 17013G19KT 33/08 A3009 RMK A01 T03320083  RH  022%=      5-min Rain = 0
KMNS 262230Z 17016G22KT 33/08 A3008 RMK A01 T03310082  RH  022%=      5-min Rain = 0
KMNS 262235Z 17015G21KT 33/08 A3008 RMK A01 T03300081  RH  022%=      5-min Rain = 0
KMNS 262240Z 16014G22KT 33/09 A3008 RMK A01 T03290088  RH  023%=      5-min Rain = 0
KMNS 262245Z 16015G21KT 33/08 A3008 RMK A01 T03270082  RH  023%=      5-min Rain = 0
KMNS 262250Z 16014G20KT 33/08 A3008 RMK A01 T03270081  RH  023%=      5-min Rain = 0
KMNS 262255Z 16014G20KT 33/09 A3008 RMK A01 T03280085  RH  023%=      5-min Rain = 0
KMNS 262300Z 16015G21KT 33/09 A3008 RMK A01 T03290091  RH  024%=      5-min Rain = 0
KMNS 262305Z 16016G21KT 33/09 A3008 RMK A01 T03270090  RH  024%=      5-min Rain = 0
KMNS 262310Z 15016G23KT 32/09 A3008 RMK A01 T03240092  RH  025%=      5-min Rain = 0
KMNS 262315Z 15018G24KT 32/10 A3008 RMK A01 T03230095  RH  025%=      5-min Rain = 0
KMNS 262320Z 15017G23KT 32/10 A3008 RMK A01 T03220097  RH  026%=      5-min Rain = 0
KMNS 262325Z 15017G23KT 32/09 A3008 RMK A01 T03220094  RH  025%=      5-min Rain = 0
KMNS 262330Z 16017G22KT 32/09 A3009 RMK A01 T03200091  RH  025%=      5-min Rain = 0
KMNS 262335Z 15015KT 32/09 A3009 RMK A01 T03210092  RH  025%=      5-min Rain = 0
KMNS 262340Z 16013G19KT 32/09 A3009 RMK A01 T03240092  RH  025%=      5-min Rain = 0
KMNS 262345Z 15014G21KT 32/09 A3009 RMK A01 T03240089  RH  024%=      5-min Rain = 0
KMNS 262350Z 15015G22KT 32/09 A3009 RMK A01 T03210086  RH  024%=      5-min Rain = 0
KMNS 262355Z 16013G18KT 32/09 A3009 RMK A01 T03210090  RH  025%=      5-min Rain = 0
KMNS 270000Z 15014G21KT 32/10 A3009 RMK A01 T03180097  RH  026%=      5-min Rain = 0
KMNS 270005Z 15014G20KT 32/10 A3009 RMK A01 T03160099  RH  027%=      5-min Rain = 0
KMNS 270010Z 15017G25KT 32/10 A3009 RMK A01 T03180103  RH  028%=      5-min Rain = 0
KMNS 270015Z 16016G22KT 32/11 A3009 RMK A01 T03200106  RH  028%=      5-min Rain = 0
KMNS 270020Z 15015G21KT 32/11 A3009 RMK A01 T03200107  RH  028%=      5-min Rain = 0
KMNS 270025Z 14017G22KT 32/11 A3009 RMK A01 T03200107  RH  028%=      5-min Rain = 0
KMNS 270030Z 15016G23KT 32/11 A3009 RMK A01 T03200106  RH  028%=      5-min Rain = 0
KMNS 270035Z 15016G21KT 32/11 A3009 RMK A01 T03180107  RH  028%=      5-min Rain = 0
KMNS 270040Z 15016G22KT 31/11 A3009 RMK A01 T03130106  RH  029%=      5-min Rain = 0
KMNS 270045Z 15015G22KT 31/11 A301 RMK A01 T03140105  RH  029%=      5-min Rain = 0
KMNS 270050Z 16014G20KT 31/11 A301 RMK A01 T03130105  RH  029%=      5-min Rain = 0
KMNS 270055Z 16015G20KT 31/10 A301 RMK A01 T03130104  RH  029%=      5-min Rain = 0
KMNS 270100Z 16015G22KT 31/10 A301 RMK A01 T03080103  RH  029%=      5-min Rain = 0
KMNS 270105Z 16015G20KT 31/10 A3011 RMK A01 T03050101  RH  029%=      5-min Rain = 0
KMNS 270110Z 16013G19KT 30/10 A3011 RMK A01 T03030099  RH  029%=      5-min Rain = 0
KMNS 270115Z 17011G20KT 30/10 A3011 RMK A01 T03010099  RH  030%=      5-min Rain = 0
KMNS 270120Z 17013KT 30/10 A3011 RMK A01 T03000099  RH  030%=      5-min Rain = 0
KMNS 270125Z 16012G17KT 30/10 A3011 RMK A01 T02980098  RH  030%=      5-min Rain = 0
KMNS 270130Z 16012G17KT 30/10 A301 RMK A01 T02960098  RH  030%=      5-min Rain = 0
KMNS 270135Z 17011KT 30/10 A3011 RMK A01 T02950098  RH  030%=      5-min Rain = 0
KMNS 270140Z 16010KT 29/10 A3011 RMK A01 T02940101  RH  031%=      5-min Rain = 0
KMNS 270145Z 16010KT 29/10 A3011 RMK A01 T02910103  RH  032%=      5-min Rain = 0
KMNS 270150Z 16010KT 29/10 A3012 RMK A01 T02900103  RH  032%=      5-min Rain = 0
KMNS 270155Z 16009KT 29/10 A3012 RMK A01 T02880104  RH  033%=      5-min Rain = 0
KMNS 270200Z 16009KT 29/11 A3013 RMK A01 T02870105  RH  033%=      5-min Rain = 0
KMNS 270205Z 16009G15KT 29/11 A3013 RMK A01 T02850106  RH  034%=      5-min Rain = 0
KMNS 270210Z 16009KT 28/11 A3014 RMK A01 T02840106  RH  034%=      5-min Rain = 0
KMNS 270215Z 16008KT 28/11 A3014 RMK A01 T02820106  RH  035%=      5-min Rain = 0
KMNS 270220Z 16009KT 28/11 A3014 RMK A01 T02800106  RH  035%=      5-min Rain = 0
KMNS 270225Z 16008KT 28/11 A3015 RMK A01 T02790106  RH  035%=      5-min Rain = 0
KMNS 270230Z 16007KT 28/11 A3015 RMK A01 T02770107  RH  036%=      5-min Rain = 0
KMNS 270235Z 15007KT 28/11 A3016 RMK A01 T02770107  RH  036%=      5-min Rain = 0
KMNS 270240Z 15007KT 28/11 A3016 RMK A01 T02750107  RH  036%=      5-min Rain = 0
KMNS 270245Z 15006KT 27/11 A3017 RMK A01 T02740108  RH  037%=      5-min Rain = 0
KMNS 270250Z 15006KT 27/11 A3017 RMK A01 T02710109  RH  037%=      5-min Rain = 0
KMNS 270255Z 16006KT 27/11 A3017 RMK A01 T02700109  RH  038%=      5-min Rain = 0
KMNS 270300Z 16006KT 27/11 A3017 RMK A01 T02680110  RH  038%=      5-min Rain = 0
KMNS 270305Z 15005KT 27/11 A3018 RMK A01 T02680110  RH  038%=      5-min Rain = 0
KMNS 270310Z 16002KT 27/11 A3019 RMK A01 T02680110  RH  039%=      5-min Rain = 0
KMNS 270315Z 32004G9KT 26/11 A302 RMK A01 T02640112  RH  040%=      5-min Rain = 0
KMNS 270320Z 33008KT 26/11 A302 RMK A01 T02580112  RH  041%=      5-min Rain = 0
KMNS 270325Z 34003KT 26/11 A302 RMK A01 T02590112  RH  041%=      5-min Rain = 0
KMNS 270330Z 06003KT 26/11 A302 RMK A01 T02610112  RH  041%=      5-min Rain = 0
KMNS 270335Z 06003KT 27/11 A3021 RMK A01 T02690112  RH  039%=      5-min Rain = 0
KMNS 270340Z 01006KT 26/11 A3021 RMK A01 T02640112  RH  040%=      5-min Rain = 0
KMNS 270345Z 02004KT 26/11 A3021 RMK A01 T02600113  RH  041%=      5-min Rain = 0
KMNS 270350Z 01003KT 26/11 A3021 RMK A01 T02610113  RH  041%=      5-min Rain = 0
KMNS 270355Z 11003KT 26/11 A3021 RMK A01 T02610113  RH  041%=      5-min Rain = 0
KMNS 270400Z 07003KT 27/11 A3021 RMK A01 T02680112  RH  039%=      5-min Rain = 0
KMNS 270405Z 07003KT 26/11 A3021 RMK A01 T02630113  RH  040%=      5-min Rain = 0
KMNS 270410Z 04002KT 26/11 A3021 RMK A01 T02610113  RH  041%=      5-min Rain = 0
KMNS 270415Z 09003KT 26/11 A3021 RMK A01 T02580113  RH  042%=      5-min Rain = 0
KMNS 270420Z 11004KT 26/11 A3021 RMK A01 T02590114  RH  042%=      5-min Rain = 0
KMNS 270425Z 12003KT 25/12 A3021 RMK A01 T02500115  RH  044%=      5-min Rain = 0
KMNS 270430Z 14003KT 25/12 A3021 RMK A01 T02480115  RH  045%=      5-min Rain = 0
KMNS 270435Z 14004KT 25/12 A302 RMK A01 T02510115  RH  044%=      5-min Rain = 0
KMNS 270440Z 15004KT 25/12 A302 RMK A01 T02500115  RH  045%=      5-min Rain = 0
KMNS 270445Z 15004KT 25/12 A302 RMK A01 T02490115  RH  044%=      5-min Rain = 0
KMNS 270450Z 15005KT 25/12 A302 RMK A01 T02480116  RH  045%=      5-min Rain = 0
KMNS 270455Z 15005KT 25/12 A302 RMK A01 T02450116  RH  046%=      5-min Rain = 0

Page generated in 0.0091 seconds.